createdAt,value
2022-12-11T00:01:20.352Z,16.65
2022-12-11T00:05:21.906Z,14.32
2022-12-11T00:09:23.618Z,14.23
2022-12-11T00:13:25.252Z,15.65
2022-12-11T00:17:26.809Z,15.27
2022-12-11T00:21:28.359Z,14.02
2022-12-11T00:25:29.943Z,15.35
2022-12-11T00:29:31.592Z,15.25
2022-12-11T00:33:33.193Z,13.50
2022-12-11T00:37:34.829Z,14.52
2022-12-11T00:41:36.433Z,13.00
2022-12-11T00:45:39.222Z,13.43
2022-12-11T00:49:45.113Z,13.18
2022-12-11T00:53:49.790Z,13.77
2022-12-11T00:57:51.928Z,13.90
2022-12-11T01:01:53.467Z,14.50
2022-12-11T01:05:55.552Z,14.77
2022-12-11T01:10:15.645Z,13.25
2022-12-11T01:14:17.197Z,15.13
2022-12-11T01:18:18.824Z,14.75
2022-12-11T01:22:20.609Z,15.32
2022-12-11T01:26:22.566Z,13.87
2022-12-11T01:30:25.782Z,15.40
2022-12-11T01:34:30.273Z,15.02
2022-12-11T01:38:31.797Z,13.80
2022-12-11T01:42:34.355Z,15.73
2022-12-11T01:46:37.035Z,15.07
2022-12-11T01:50:44.284Z,15.85
2022-12-11T01:54:46.491Z,14.57
2022-12-11T01:58:53.871Z,16.15
2022-12-11T02:02:55.478Z,14.98
2022-12-11T02:06:57.279Z,15.80
2022-12-11T02:11:14.595Z,14.77
2022-12-11T02:15:22.881Z,14.88
2022-12-11T02:19:39.697Z,15.45
2022-12-11T02:24:00.413Z,15.88
2022-12-11T02:28:20.632Z,14.65
2022-12-11T02:32:59.018Z,14.45
2022-12-11T02:37:09.657Z,13.48
2022-12-11T02:41:12.116Z,16.60
2022-12-11T02:45:15.182Z,15.00
2022-12-11T02:49:21.243Z,15.75
2022-12-11T02:53:26.182Z,15.18
2022-12-11T02:57:34.350Z,14.80
2022-12-11T03:01:36.104Z,14.60
2022-12-11T03:05:38.531Z,15.73
2022-12-11T03:09:42.116Z,16.00
2022-12-11T03:13:44.055Z,15.43
2022-12-11T03:18:08.046Z,11.83
2022-12-11T03:22:16.477Z,16.05
2022-12-11T03:26:20.212Z,15.13
2022-12-11T03:30:24.034Z,15.00
2022-12-11T03:34:37.176Z,16.23
2022-12-11T03:38:49.234Z,16.27
2022-12-11T03:42:53.594Z,16.13
2022-12-11T03:46:57.862Z,16.20
2022-12-11T03:51:03.798Z,16.67
2022-12-11T03:55:06.820Z,16.17
2022-12-11T03:59:08.909Z,16.90
2022-12-11T04:03:14.064Z,18.38
2022-12-11T04:07:15.894Z,17.88
2022-12-11T04:11:35.672Z,18.27
2022-12-11T04:15:38.405Z,17.63
2022-12-11T04:24:15.544Z,17.02
2022-12-11T04:28:17.151Z,17.05
2022-12-11T04:32:18.696Z,17.90
2022-12-11T04:36:20.226Z,17.50
2022-12-11T04:40:22.374Z,17.40
2022-12-11T04:44:23.980Z,16.13
2022-12-11T04:48:25.532Z,17.52
2022-12-11T04:52:27.149Z,16.73
2022-12-11T04:56:28.782Z,17.83
2022-12-11T05:00:30.734Z,17.08
2022-12-11T05:04:34.298Z,16.70
2022-12-11T05:08:37.980Z,14.45
2022-12-11T05:12:39.710Z,14.77
2022-12-11T05:16:41.275Z,14.77
2022-12-11T05:20:42.840Z,16.48
2022-12-11T05:24:45.769Z,17.38
2022-12-11T05:28:53.296Z,17.05
2022-12-11T05:32:54.957Z,16.10
2022-12-11T05:36:56.554Z,15.88
2022-12-11T05:41:03.669Z,15.43
2022-12-11T05:45:05.691Z,15.38
2022-12-11T05:49:07.962Z,11.43
2022-12-11T05:53:09.535Z,16.23
2022-12-11T05:57:11.137Z,18.88
2022-12-11T06:01:15.829Z,17.58
2022-12-11T06:05:17.579Z,18.80
2022-12-11T06:09:19.186Z,19.13
2022-12-11T06:13:21.303Z,17.67
2022-12-11T06:17:23.490Z,19.02
2022-12-11T06:21:28.176Z,18.63
2022-12-11T06:25:30.244Z,18.08
2022-12-11T06:29:31.816Z,17.43
2022-12-11T06:33:33.913Z,15.00
2022-12-11T06:37:37.072Z,15.70
2022-12-11T06:41:38.882Z,14.70
2022-12-11T06:45:40.539Z,13.95
2022-12-11T06:49:42.165Z,16.55
2022-12-11T06:53:44.362Z,16.23
2022-12-11T06:57:45.909Z,11.05
2022-12-11T07:01:47.516Z,16.25
2022-12-11T07:05:49.203Z,16.48
2022-12-11T07:09:51.003Z,15.57
2022-12-11T07:13:52.554Z,16.33
2022-12-11T07:17:54.187Z,16.55
2022-12-11T07:21:55.764Z,16.30
2022-12-11T07:25:57.841Z,17.02
2022-12-11T07:29:59.460Z,16.57
2022-12-11T07:34:04.054Z,17.67
2022-12-11T07:38:05.639Z,18.02
2022-12-11T07:42:07.265Z,17.17
2022-12-11T07:46:15.559Z,17.73
2022-12-11T07:50:17.227Z,17.60
2022-12-11T07:54:18.768Z,18.85
2022-12-11T07:58:20.638Z,18.75
2022-12-11T08:02:22.347Z,19.63
2022-12-11T08:06:33.167Z,19.58
2022-12-11T08:10:34.757Z,18.65
2022-12-11T08:14:36.409Z,18.95
2022-12-11T08:18:38.023Z,20.33
2022-12-11T08:22:39.662Z,19.52
2022-12-11T08:26:41.240Z,19.45
2022-12-11T08:30:42.887Z,18.42
2022-12-11T08:34:44.975Z,18.58
2022-12-11T08:38:47.008Z,18.70
2022-12-11T08:42:48.626Z,19.80
2022-12-11T08:46:50.913Z,13.35
2022-12-11T08:50:52.667Z,18.50
2022-12-11T08:54:54.345Z,16.98
2022-12-11T08:58:56.075Z,18.25
2022-12-11T09:02:57.734Z,17.45
2022-12-11T09:06:59.382Z,18.38
2022-12-11T09:11:06.884Z,17.23
2022-12-11T09:15:11.768Z,17.58
2022-12-11T09:19:14.889Z,17.48
2022-12-11T09:23:16.662Z,18.02
2022-12-11T09:27:19.906Z,18.92
2022-12-11T09:31:32.716Z,19.25
2022-12-11T09:35:34.328Z,18.35
2022-12-11T09:39:35.891Z,18.85
2022-12-11T09:43:52.824Z,17.40
2022-12-11T09:47:56.591Z,17.00
2022-12-11T09:52:19.701Z,18.45
2022-12-11T10:00:44.495Z,16.63
2022-12-11T10:05:02.255Z,19.58
2022-12-11T10:09:30.943Z,20.10
2022-12-11T10:14:07.759Z,19.90
2022-12-11T10:18:16.113Z,20.02
2022-12-11T10:22:24.561Z,19.92
2022-12-11T10:26:29.343Z,19.92
2022-12-11T10:30:38.021Z,19.73
2022-12-11T10:34:44.127Z,20.52
2022-12-11T10:38:46.905Z,19.15
2022-12-11T10:42:53.284Z,19.20
2022-12-11T10:47:21.299Z,18.92
2022-12-11T10:51:26.714Z,20.13
2022-12-11T10:55:34.298Z,20.27
2022-12-11T10:59:40.734Z,19.25
2022-12-11T11:04:14.209Z,18.88
2022-12-11T11:08:22.631Z,21.48
2022-12-11T11:12:27.580Z,19.67
2022-12-11T11:16:29.436Z,19.52
2022-12-11T11:20:34.163Z,18.27
2022-12-11T11:24:41.938Z,19.30
2022-12-11T11:28:48.881Z,17.92
2022-12-11T11:32:54.408Z,22.05
2022-12-11T11:36:57.860Z,20.05
2022-12-11T11:41:24.325Z,19.92
2022-12-11T11:45:39.798Z,19.50
2022-12-11T11:49:52.946Z,19.30
2022-12-11T11:53:59.338Z,19.35
2022-12-11T11:58:07.504Z,18.13
2022-12-11T12:02:18.173Z,19.27
2022-12-11T12:06:25.999Z,18.23
2022-12-11T12:10:38.909Z,17.10
2022-12-11T12:15:18.821Z,18.55
2022-12-11T12:19:23.346Z,17.70
2022-12-11T12:23:41.267Z,19.13
2022-12-11T12:27:54.929Z,18.25
2022-12-11T12:32:02.490Z,18.27
2022-12-11T12:36:23.069Z,20.38
2022-12-11T12:40:44.771Z,20.50
2022-12-11T12:45:08.943Z,19.73
2022-12-11T12:49:15.663Z,18.38
2022-12-11T12:53:28.682Z,18.60
2022-12-11T13:01:32.654Z,17.63
2022-12-11T13:05:34.696Z,19.65
2022-12-11T13:09:36.267Z,13.47
2022-12-11T13:13:42.495Z,18.52
2022-12-11T13:17:44.049Z,20.50
2022-12-11T13:21:56.760Z,18.40
2022-12-11T13:26:02.051Z,19.42
2022-12-11T13:30:15.917Z,18.55
2022-12-11T13:34:22.780Z,17.45
2022-12-11T13:38:25.617Z,17.10
2022-12-11T13:46:37.772Z,16.08
2022-12-11T13:50:43.799Z,17.50
2022-12-11T13:54:56.381Z,18.52
2022-12-11T13:58:58.179Z,16.90
2022-12-11T14:03:05.245Z,16.58
2022-12-11T14:07:09.411Z,17.60
2022-12-11T14:11:21.769Z,17.80
2022-12-11T14:15:24.139Z,15.82
2022-12-11T14:19:26.026Z,17.25
2022-12-11T14:23:31.255Z,16.98
2022-12-11T14:27:33.278Z,15.93
2022-12-11T14:31:40.559Z,16.80
2022-12-11T14:35:43.630Z,17.02
2022-12-11T14:39:53.090Z,16.52
2022-12-11T14:43:59.103Z,16.17
2022-12-11T14:48:03.297Z,17.23
2022-12-11T14:52:05.300Z,16.00
2022-12-11T14:56:09.557Z,16.27
2022-12-11T15:00:29.784Z,18.75
2022-12-11T15:04:33.468Z,19.90
2022-12-11T15:08:37.016Z,20.33
2022-12-11T15:12:45.164Z,18.40
2022-12-11T15:16:49.335Z,19.52
2022-12-11T15:20:54.653Z,19.17
2022-12-11T15:24:56.288Z,18.80
2022-12-11T15:29:02.858Z,18.48
2022-12-11T15:33:10.363Z,19.98
2022-12-11T15:37:32.697Z,18.35
2022-12-11T15:41:34.788Z,18.10
2022-12-11T15:45:36.340Z,20.23
2022-12-11T15:49:37.930Z,19.42
2022-12-11T15:53:39.502Z,20.17
2022-12-11T15:58:02.702Z,19.90
2022-12-11T16:02:04.344Z,19.08
2022-12-11T16:06:06.145Z,20.45
2022-12-11T16:10:13.357Z,20.10
2022-12-11T16:14:14.898Z,21.75
2022-12-11T16:18:20.904Z,19.38
2022-12-11T16:22:22.582Z,20.25
2022-12-11T16:26:24.263Z,19.00
2022-12-11T16:30:27.728Z,18.13
2022-12-11T16:34:29.548Z,18.08
2022-12-11T16:38:31.190Z,18.17
2022-12-11T16:42:33.206Z,18.73
2022-12-11T16:46:34.881Z,17.67
2022-12-11T16:50:39.861Z,18.52
2022-12-11T16:54:41.434Z,18.25
2022-12-11T16:58:43.165Z,19.90
2022-12-11T17:02:44.821Z,19.15
2022-12-11T17:06:46.522Z,19.23
2022-12-11T17:10:48.235Z,19.88
2022-12-11T17:14:50.650Z,20.48
2022-12-11T17:18:53.368Z,18.45
2022-12-11T17:22:54.934Z,19.27
2022-12-11T17:26:56.820Z,20.05
2022-12-11T17:30:58.745Z,19.10
2022-12-11T17:35:00.370Z,19.90
2022-12-11T17:39:02.001Z,19.85
2022-12-11T17:43:06.411Z,19.25
2022-12-11T17:47:11.263Z,17.27
2022-12-11T17:51:20.985Z,19.70
2022-12-11T17:55:22.687Z,19.27
2022-12-11T17:59:24.889Z,18.67
2022-12-11T18:03:28.290Z,18.85
2022-12-11T18:07:30.032Z,20.80
2022-12-11T18:11:33.018Z,18.77
2022-12-11T18:15:36.440Z,18.67
2022-12-11T18:19:42.791Z,17.63
2022-12-11T18:23:48.226Z,18.30
2022-12-11T18:27:49.830Z,20.30
2022-12-11T18:31:51.535Z,17.85
2022-12-11T18:35:53.220Z,16.33
2022-12-11T18:39:54.986Z,17.30
2022-12-11T18:44:01.995Z,17.05
2022-12-11T18:48:07.813Z,15.38
2022-12-11T18:52:09.448Z,15.75
2022-12-11T18:56:16.602Z,15.43
2022-12-11T19:00:18.840Z,14.82
2022-12-11T19:04:20.988Z,18.55
2022-12-11T19:08:23.735Z,16.23
2022-12-11T19:16:30.242Z,14.07
2022-12-11T19:20:58.014Z,13.95
2022-12-11T19:24:58.321Z,14.82
2022-12-11T19:29:00.431Z,15.70
2022-12-11T19:33:03.573Z,12.90
2022-12-11T19:37:05.467Z,13.73
2022-12-11T19:41:17.530Z,14.27
2022-12-11T19:45:19.289Z,15.03
2022-12-11T19:49:21.548Z,14.90
2022-12-11T19:53:23.241Z,14.60
2022-12-11T19:57:24.874Z,13.25
2022-12-11T20:01:30.418Z,12.55
2022-12-11T20:05:32.137Z,12.52
2022-12-11T20:09:33.777Z,12.40
2022-12-11T20:13:36.695Z,12.52
2022-12-11T20:17:43.436Z,12.75
2022-12-11T20:21:45.014Z,11.35
2022-12-11T20:25:46.665Z,11.57
2022-12-11T20:29:48.289Z,13.82
2022-12-11T20:33:52.499Z,13.68
2022-12-11T20:37:54.110Z,10.95
2022-12-11T20:41:55.885Z,11.25
2022-12-11T20:45:57.625Z,10.80
2022-12-11T20:49:59.411Z,10.63
2022-12-11T20:54:01.440Z,10.95
2022-12-11T20:58:03.001Z,11.03
2022-12-11T21:02:05.596Z,11.55
2022-12-11T21:06:07.418Z,11.95
2022-12-11T21:10:09.723Z,13.32
2022-12-11T21:14:11.530Z,12.93
2022-12-11T21:18:13.258Z,13.30
2022-12-11T21:22:14.828Z,14.35
2022-12-11T21:26:17.358Z,13.60
2022-12-11T21:30:19.803Z,13.48
2022-12-11T21:38:28.372Z,13.02
2022-12-11T21:42:30.296Z,14.57
2022-12-11T21:46:32.623Z,16.50
2022-12-11T21:50:35.506Z,16.45
2022-12-11T21:54:37.310Z,15.90
2022-12-11T21:58:41.181Z,16.05
2022-12-11T22:02:43.005Z,15.73
2022-12-11T22:06:47.098Z,15.02
2022-12-11T22:10:49.998Z,14.00
2022-12-11T22:14:52.037Z,14.65
2022-12-11T22:18:53.698Z,13.57
2022-12-11T22:22:55.361Z,12.63
2022-12-11T22:26:57.266Z,13.35
2022-12-11T22:30:59.366Z,13.27
2022-12-11T22:35:01.703Z,15.02
2022-12-11T22:39:03.610Z,13.95
2022-12-11T22:43:05.164Z,14.80
2022-12-11T22:47:06.791Z,15.48
2022-12-11T22:51:08.481Z,14.85
2022-12-11T22:55:10.572Z,14.57
2022-12-11T22:59:12.645Z,16.60
2022-12-11T23:03:14.570Z,14.80
2022-12-11T23:07:16.282Z,13.68
2022-12-11T23:11:27.479Z,14.45
2022-12-11T23:15:29.089Z,14.55
2022-12-11T23:19:30.769Z,14.20
2022-12-11T23:23:32.614Z,15.70
2022-12-11T23:27:34.405Z,13.48
2022-12-11T23:31:36.451Z,14.43
2022-12-11T23:35:38.172Z,14.30
2022-12-11T23:39:39.874Z,14.45
2022-12-11T23:43:42.033Z,13.80
2022-12-11T23:47:43.616Z,13.77
2022-12-11T23:51:45.201Z,13.63
2022-12-11T23:55:46.902Z,13.93
2022-12-11T23:59:48.571Z,14.07
